sensor_id;sensor_type;location;lat;lon;timestamp;P1;P2;P0
64861;PMS5003;62652;42.274;-71.436;2022-09-09T00:00:00;4.97;4.00;3.23
64861;PMS5003;62652;42.274;-71.436;2022-09-09T00:01:02;5.77;5.63;4.33
64861;PMS5003;62652;42.274;-71.436;2022-09-09T00:02:01;5.57;4.97;4.00
64861;PMS5003;62652;42.274;-71.436;2022-09-09T00:03:02;5.60;5.43;3.57
64861;PMS5003;62652;42.274;-71.436;2022-09-09T00:04:03;5.17;5.17;3.77
64861;PMS5003;62652;42.274;-71.436;2022-09-09T00:05:04;5.27;5.27;3.73
64861;PMS5003;62652;42.274;-71.436;2022-09-09T00:06:02;6.13;5.50;3.83
64861;PMS5003;62652;42.274;-71.436;2022-09-09T00:07:03;4.97;4.97;4.10
64861;PMS5003;62652;42.274;-71.436;2022-09-09T00:08:01;4.33;4.07;2.57
64861;PMS5003;62652;42.274;-71.436;2022-09-09T00:09:01;4.97;4.97;4.47
64861;PMS5003;62652;42.274;-71.436;2022-09-09T00:10:03;4.83;4.57;3.87
64861;PMS5003;62652;42.274;-71.436;2022-09-09T00:11:01;6.20;5.90;4.57
64861;PMS5003;62652;42.274;-71.436;2022-09-09T00:12:01;5.07;4.97;3.10
64861;PMS5003;62652;42.274;-71.436;2022-09-09T00:13:02;5.33;4.97;3.97
64861;PMS5003;62652;42.274;-71.436;2022-09-09T00:14:00;5.53;5.47;3.93
64861;PMS5003;62652;42.274;-71.436;2022-09-09T00:15:02;5.33;5.33;4.10
64861;PMS5003;62652;42.274;-71.436;2022-09-09T00:16:02;8.70;5.70;4.60
64861;PMS5003;62652;42.274;-71.436;2022-09-09T00:17:01;6.00;5.87;4.00
64861;PMS5003;62652;42.274;-71.436;2022-09-09T00:18:01;5.53;5.00;3.37
64861;PMS5003;62652;42.274;-71.436;2022-09-09T00:19:01;5.87;5.87;4.43
64861;PMS5003;62652;42.274;-71.436;2022-09-09T00:20:01;6.60;6.60;4.80
64861;PMS5003;62652;42.274;-71.436;2022-09-09T00:21:01;7.47;5.80;4.60
64861;PMS5003;62652;42.274;-71.436;2022-09-09T00:22:05;6.97;6.87;4.10
64861;PMS5003;62652;42.274;-71.436;2022-09-09T00:23:03;5.53;5.30;3.77
64861;PMS5003;62652;42.274;-71.436;2022-09-09T00:24:00;7.90;7.47;5.73
64861;PMS5003;62652;42.274;-71.436;2022-09-09T00:25:02;7.67;7.37;5.47
64861;PMS5003;62652;42.274;-71.436;2022-09-09T00:26:02;7.77;7.47;5.10
64861;PMS5003;62652;42.274;-71.436;2022-09-09T00:27:01;5.33;5.33;3.53
64861;PMS5003;62652;42.274;-71.436;2022-09-09T00:28:00;7.73;7.17;4.83
64861;PMS5003;62652;42.274;-71.436;2022-09-09T00:29:02;5.63;5.00;3.73
64861;PMS5003;62652;42.274;-71.436;2022-09-09T00:30:02;7.33;6.53;5.53
64861;PMS5003;62652;42.274;-71.436;2022-09-09T00:31:01;7.00;6.77;4.93
64861;PMS5003;62652;42.274;-71.436;2022-09-09T00:32:05;6.73;6.37;4.73
64861;PMS5003;62652;42.274;-71.436;2022-09-09T00:33:01;6.73;6.67;4.40
64861;PMS5003;62652;42.274;-71.436;2022-09-09T00:34:03;6.60;5.80;4.03
64861;PMS5003;62652;42.274;-71.436;2022-09-09T00:35:02;8.27;7.73;5.30
64861;PMS5003;62652;42.274;-71.436;2022-09-09T00:36:00;6.10;6.10;4.70
64861;PMS5003;62652;42.274;-71.436;2022-09-09T00:37:00;8.17;7.60;5.03
64861;PMS5003;62652;42.274;-71.436;2022-09-09T00:38:01;6.40;5.93;4.93
64861;PMS5003;62652;42.274;-71.436;2022-09-09T00:39:00;6.67;5.50;4.27
64861;PMS5003;62652;42.274;-71.436;2022-09-09T00:40:02;6.63;6.13;5.03
64861;PMS5003;62652;42.274;-71.436;2022-09-09T00:41:02;6.77;6.53;4.67
64861;PMS5003;62652;42.274;-71.436;2022-09-09T00:42:05;6.80;5.97;4.53
64861;PMS5003;62652;42.274;-71.436;2022-09-09T00:43:07;7.53;7.03;4.73
64861;PMS5003;62652;42.274;-71.436;2022-09-09T00:44:00;6.93;6.73;3.80
64861;PMS5003;62652;42.274;-71.436;2022-09-09T00:45:02;7.40;6.67;5.70
64861;PMS5003;62652;42.274;-71.436;2022-09-09T00:47:04;7.83;7.83;5.83
64861;PMS5003;62652;42.274;-71.436;2022-09-09T00:48:00;8.13;7.77;5.43
64861;PMS5003;62652;42.274;-71.436;2022-09-09T00:49:03;8.00;6.90;5.00
64861;PMS5003;62652;42.274;-71.436;2022-09-09T00:50:01;7.40;7.30;6.57
64861;PMS5003;62652;42.274;-71.436;2022-09-09T00:51:00;6.23;6.23;4.10
64861;PMS5003;62652;42.274;-71.436;2022-09-09T00:52:03;8.00;6.80;4.60
64861;PMS5003;62652;42.274;-71.436;2022-09-09T00:53:04;6.53;6.43;4.40
64861;PMS5003;62652;42.274;-71.436;2022-09-09T00:54:07;5.23;5.23;3.87
64861;PMS5003;62652;42.274;-71.436;2022-09-09T00:55:03;7.87;7.27;4.87
64861;PMS5003;62652;42.274;-71.436;2022-09-09T00:56:02;7.10;6.37;5.60
64861;PMS5003;62652;42.274;-71.436;2022-09-09T00:57:05;8.13;7.87;4.43
64861;PMS5003;62652;42.274;-71.436;2022-09-09T00:58:00;6.67;6.40;4.50
64861;PMS5003;62652;42.274;-71.436;2022-09-09T00:59:03;9.50;9.13;4.33
64861;PMS5003;62652;42.274;-71.436;2022-09-09T01:01:02;6.80;6.80;4.90
64861;PMS5003;62652;42.274;-71.436;2022-09-09T01:02:00;8.33;6.70;4.70
64861;PMS5003;62652;42.274;-71.436;2022-09-09T01:03:05;6.73;6.63;4.93
64861;PMS5003;62652;42.274;-71.436;2022-09-09T01:04:00;8.13;7.47;4.80
64861;PMS5003;62652;42.274;-71.436;2022-09-09T01:05:02;7.83;7.67;5.77
64861;PMS5003;62652;42.274;-71.436;2022-09-09T01:06:01;11.87;10.07;7.87
64861;PMS5003;62652;42.274;-71.436;2022-09-09T01:07:02;11.07;9.93;7.87
64861;PMS5003;62652;42.274;-71.436;2022-09-09T01:08:00;10.67;10.63;8.67
64861;PMS5003;62652;42.274;-71.436;2022-09-09T01:09:04;13.73;12.93;9.23
64861;PMS5003;62652;42.274;-71.436;2022-09-09T01:10:00;16.23;15.50;11.70
64861;PMS5003;62652;42.274;-71.436;2022-09-09T01:11:00;19.83;19.20;12.70
64861;PMS5003;62652;42.274;-71.436;2022-09-09T01:12:01;15.80;15.73;11.10
64861;PMS5003;62652;42.274;-71.436;2022-09-09T01:13:00;14.47;14.47;9.70
64861;PMS5003;62652;42.274;-71.436;2022-09-09T01:14:02;13.23;12.43;8.57
64861;PMS5003;62652;42.274;-71.436;2022-09-09T01:15:03;11.97;11.83;8.83
64861;PMS5003;62652;42.274;-71.436;2022-09-09T01:16:01;12.40;11.80;9.10
64861;PMS5003;62652;42.274;-71.436;2022-09-09T01:17:01;16.13;15.37;10.93
64861;PMS5003;62652;42.274;-71.436;2022-09-09T01:18:02;14.70;14.50;10.60
64861;PMS5003;62652;42.274;-71.436;2022-09-09T01:19:00;15.03;13.83;10.57
64861;PMS5003;62652;42.274;-71.436;2022-09-09T01:20:05;13.43;12.73;9.37
64861;PMS5003;62652;42.274;-71.436;2022-09-09T01:21:03;13.47;13.10;8.63
64861;PMS5003;62652;42.274;-71.436;2022-09-09T01:22:01;14.13;12.87;8.77
64861;PMS5003;62652;42.274;-71.436;2022-09-09T01:23:04;11.93;11.17;8.67
64861;PMS5003;62652;42.274;-71.436;2022-09-09T01:24:04;10.80;10.50;7.70
64861;PMS5003;62652;42.274;-71.436;2022-09-09T01:25:09;11.37;11.00;8.17
64861;PMS5003;62652;42.274;-71.436;2022-09-09T01:26:05;10.93;10.37;7.43
64861;PMS5003;62652;42.274;-71.436;2022-09-09T01:27:00;12.47;11.60;6.97
64861;PMS5003;62652;42.274;-71.436;2022-09-09T01:28:00;10.83;10.53;7.00
64861;PMS5003;62652;42.274;-71.436;2022-09-09T01:29:00;9.37;8.73;6.23
64861;PMS5003;62652;42.274;-71.436;2022-09-09T01:30:00;11.07;9.43;6.60
64861;PMS5003;62652;42.274;-71.436;2022-09-09T01:31:00;9.33;8.53;5.40
64861;PMS5003;62652;42.274;-71.436;2022-09-09T01:32:01;7.70;7.67;5.83
64861;PMS5003;62652;42.274;-71.436;2022-09-09T01:33:00;8.57;8.33;5.50
64861;PMS5003;62652;42.274;-71.436;2022-09-09T01:34:00;9.33;8.67;5.27
64861;PMS5003;62652;42.274;-71.436;2022-09-09T01:35:00;9.57;8.77;7.17
64861;PMS5003;62652;42.274;-71.436;2022-09-09T01:36:00;8.10;7.97;5.63
64861;PMS5003;62652;42.274;-71.436;2022-09-09T01:37:01;8.53;8.13;5.33
64861;PMS5003;62652;42.274;-71.436;2022-09-09T01:38:00;6.70;6.70;4.97
64861;PMS5003;62652;42.274;-71.436;2022-09-09T01:39:00;8.23;7.73;5.43
64861;PMS5003;62652;42.274;-71.436;2022-09-09T01:40:00;6.70;6.40;5.00
64861;PMS5003;62652;42.274;-71.436;2022-09-09T01:41:00;6.63;6.40;5.27
64861;PMS5003;62652;42.274;-71.436;2022-09-09T01:42:00;7.40;7.00;5.23
64861;PMS5003;62652;42.274;-71.436;2022-09-09T01:43:00;6.20;6.20;4.73
64861;PMS5003;62652;42.274;-71.436;2022-09-09T01:44:00;6.57;6.17;4.57
64861;PMS5003;62652;42.274;-71.436;2022-09-09T01:45:00;7.97;7.40;5.23
64861;PMS5003;62652;42.274;-71.436;2022-09-09T01:46:00;6.70;6.40;4.90
64861;PMS5003;62652;42.274;-71.436;2022-09-09T01:47:00;7.90;7.47;5.00
64861;PMS5003;62652;42.274;-71.436;2022-09-09T01:48:00;6.60;5.70;4.13
64861;PMS5003;62652;42.274;-71.436;2022-09-09T01:49:00;8.23;7.77;5.27
64861;PMS5003;62652;42.274;-71.436;2022-09-09T01:50:00;6.93;6.93;5.47
64861;PMS5003;62652;42.274;-71.436;2022-09-09T01:51:00;5.57;5.37;3.67
64861;PMS5003;62652;42.274;-71.436;2022-09-09T01:52:00;6.13;6.13;4.83
64861;PMS5003;62652;42.274;-71.436;2022-09-09T01:53:00;5.67;5.67;3.93
64861;PMS5003;62652;42.274;-71.436;2022-09-09T01:54:00;7.17;6.87;4.23
64861;PMS5003;62652;42.274;-71.436;2022-09-09T01:55:00;7.60;7.50;4.70
64861;PMS5003;62652;42.274;-71.436;2022-09-09T01:56:02;7.47;7.17;4.23
64861;PMS5003;62652;42.274;-71.436;2022-09-09T01:57:02;7.73;6.97;4.70
64861;PMS5003;62652;42.274;-71.436;2022-09-09T01:58:05;5.90;5.90;4.10
64861;PMS5003;62652;42.274;-71.436;2022-09-09T01:59:03;6.30;6.10;4.07
64861;PMS5003;62652;42.274;-71.436;2022-09-09T02:00:02;7.13;7.13;6.17
64861;PMS5003;62652;42.274;-71.436;2022-09-09T02:01:02;5.53;5.00;3.87
64861;PMS5003;62652;42.274;-71.436;2022-09-09T02:02:05;7.33;7.10;5.20
64861;PMS5003;62652;42.274;-71.436;2022-09-09T02:03:00;5.10;4.93;3.83
64861;PMS5003;62652;42.274;-71.436;2022-09-09T02:04:01;6.73;6.40;5.13
64861;PMS5003;62652;42.274;-71.436;2022-09-09T02:05:02;5.13;4.87;3.63
64861;PMS5003;62652;42.274;-71.436;2022-09-09T02:06:02;4.60;4.20;3.17
64861;PMS5003;62652;42.274;-71.436;2022-09-09T02:07:00;6.57;5.30;3.83
64861;PMS5003;62652;42.274;-71.436;2022-09-09T02:08:01;5.93;5.93;4.73
64861;PMS5003;62652;42.274;-71.436;2022-09-09T02:09:00;6.07;5.57;3.20
64861;PMS5003;62652;42.274;-71.436;2022-09-09T02:10:01;5.73;4.97;3.87
64861;PMS5003;62652;42.274;-71.436;2022-09-09T02:11:01;4.47;4.40;3.80
64861;PMS5003;62652;42.274;-71.436;2022-09-09T02:12:01;4.80;4.80;4.00
64861;PMS5003;62652;42.274;-71.436;2022-09-09T02:13:01;6.80;6.70;4.77
64861;PMS5003;62652;42.274;-71.436;2022-09-09T02:14:00;5.53;5.53;3.97
64861;PMS5003;62652;42.274;-71.436;2022-09-09T02:15:01;5.40;4.57;3.40
64861;PMS5003;62652;42.274;-71.436;2022-09-09T02:16:00;6.47;6.37;4.33
64861;PMS5003;62652;42.274;-71.436;2022-09-09T02:17:01;6.43;5.47;4.00
64861;PMS5003;62652;42.274;-71.436;2022-09-09T02:18:00;4.73;4.33;3.33
64861;PMS5003;62652;42.274;-71.436;2022-09-09T02:19:01;6.10;5.23;4.17
64861;PMS5003;62652;42.274;-71.436;2022-09-09T02:20:03;5.50;5.50;3.87
64861;PMS5003;62652;42.274;-71.436;2022-09-09T02:21:00;6.10;4.90;3.80
64861;PMS5003;62652;42.274;-71.436;2022-09-09T02:22:00;7.10;6.17;4.20
64861;PMS5003;62652;42.274;-71.436;2022-09-09T02:23:00;5.63;5.63;4.00
64861;PMS5003;62652;42.274;-71.436;2022-09-09T02:24:02;6.00;5.70;4.53
64861;PMS5003;62652;42.274;-71.436;2022-09-09T02:25:00;6.40;5.43;3.70
64861;PMS5003;62652;42.274;-71.436;2022-09-09T02:26:00;5.53;5.30;3.37
64861;PMS5003;62652;42.274;-71.436;2022-09-09T02:27:00;5.43;5.40;3.87
64861;PMS5003;62652;42.274;-71.436;2022-09-09T02:28:00;6.10;6.10;3.20
64861;PMS5003;62652;42.274;-71.436;2022-09-09T02:29:01;6.57;6.43;4.70
64861;PMS5003;62652;42.274;-71.436;2022-09-09T02:30:00;4.20;3.93;2.63
64861;PMS5003;62652;42.274;-71.436;2022-09-09T02:31:00;3.43;3.43;2.50
64861;PMS5003;62652;42.274;-71.436;2022-09-09T02:32:01;5.43;5.33;3.87
64861;PMS5003;62652;42.274;-71.436;2022-09-09T02:33:00;5.13;4.07;3.30
64861;PMS5003;62652;42.274;-71.436;2022-09-09T02:34:00;5.07;4.17;3.43
64861;PMS5003;62652;42.274;-71.436;2022-09-09T02:35:02;4.67;4.13;3.13
64861;PMS5003;62652;42.274;-71.436;2022-09-09T02:36:00;3.60;3.60;2.37
64861;PMS5003;62652;42.274;-71.436;2022-09-09T02:37:00;5.87;5.13;3.37
64861;PMS5003;62652;42.274;-71.436;2022-09-09T02:38:01;5.50;5.47;3.83
64861;PMS5003;62652;42.274;-71.436;2022-09-09T02:39:00;4.83;4.47;3.33
64861;PMS5003;62652;42.274;-71.436;2022-09-09T02:40:00;3.77;3.67;2.27
64861;PMS5003;62652;42.274;-71.436;2022-09-09T02:41:00;6.50;5.23;3.63
64861;PMS5003;62652;42.274;-71.436;2022-09-09T02:42:00;4.77;4.77;4.43
64861;PMS5003;62652;42.274;-71.436;2022-09-09T02:43:00;3.83;3.83;3.00
64861;PMS5003;62652;42.274;-71.436;2022-09-09T02:44:00;6.10;5.23;3.43
64861;PMS5003;62652;42.274;-71.436;2022-09-09T02:45:00;4.77;4.77;3.50
64861;PMS5003;62652;42.274;-71.436;2022-09-09T02:46:03;5.17;5.17;3.43
64861;PMS5003;62652;42.274;-71.436;2022-09-09T02:47:05;5.13;5.13;3.87
64861;PMS5003;62652;42.274;-71.436;2022-09-09T02:48:02;5.30;5.30;3.87
64861;PMS5003;62652;42.274;-71.436;2022-09-09T02:49:01;4.70;4.30;3.13
64861;PMS5003;62652;42.274;-71.436;2022-09-09T02:50:03;6.73;6.73;4.87
64861;PMS5003;62652;42.274;-71.436;2022-09-09T02:51:01;5.10;5.10;4.10
64861;PMS5003;62652;42.274;-71.436;2022-09-09T02:52:01;5.67;5.53;4.23
64861;PMS5003;62652;42.274;-71.436;2022-09-09T02:53:02;3.93;3.93;3.13
64861;PMS5003;62652;42.274;-71.436;2022-09-09T02:54:03;6.17;5.37;4.03
64861;PMS5003;62652;42.274;-71.436;2022-09-09T02:55:03;5.63;5.17;3.53
64861;PMS5003;62652;42.274;-71.436;2022-09-09T02:56:01;6.03;5.50;3.90
64861;PMS5003;62652;42.274;-71.436;2022-09-09T02:57:01;4.43;4.43;2.40
64861;PMS5003;62652;42.274;-71.436;2022-09-09T02:58:00;4.57;4.57;3.53
64861;PMS5003;62652;42.274;-71.436;2022-09-09T02:59:02;5.33;5.30;4.13
64861;PMS5003;62652;42.274;-71.436;2022-09-09T03:00:00;5.93;5.53;4.20
64861;PMS5003;62652;42.274;-71.436;2022-09-09T03:01:00;6.30;5.47;4.10
64861;PMS5003;62652;42.274;-71.436;2022-09-09T03:02:00;6.13;6.13;5.20
64861;PMS5003;62652;42.274;-71.436;2022-09-09T03:03:00;6.07;6.07;4.27
64861;PMS5003;62652;42.274;-71.436;2022-09-09T03:04:00;5.57;4.83;4.03
64861;PMS5003;62652;42.274;-71.436;2022-09-09T03:05:00;6.77;6.07;5.00
64861;PMS5003;62652;42.274;-71.436;2022-09-09T03:06:00;5.00;5.00;3.60
64861;PMS5003;62652;42.274;-71.436;2022-09-09T03:07:00;8.37;7.20;5.73
64861;PMS5003;62652;42.274;-71.436;2022-09-09T03:08:01;7.03;7.03;4.30
64861;PMS5003;62652;42.274;-71.436;2022-09-09T03:09:00;6.87;6.53;4.73
64861;PMS5003;62652;42.274;-71.436;2022-09-09T03:10:00;6.63;6.23;4.43
64861;PMS5003;62652;42.274;-71.436;2022-09-09T03:11:00;6.67;6.60;4.50
64861;PMS5003;62652;42.274;-71.436;2022-09-09T03:12:00;6.67;6.30;5.03
64861;PMS5003;62652;42.274;-71.436;2022-09-09T03:13:00;5.70;5.70;4.50
64861;PMS5003;62652;42.274;-71.436;2022-09-09T03:14:00;7.33;6.90;5.67
64861;PMS5003;62652;42.274;-71.436;2022-09-09T03:15:00;8.43;7.23;5.57
64861;PMS5003;62652;42.274;-71.436;2022-09-09T03:16:00;6.43;6.43;5.03
64861;PMS5003;62652;42.274;-71.436;2022-09-09T03:17:00;7.30;6.97;5.80
64861;PMS5003;62652;42.274;-71.436;2022-09-09T03:18:00;7.53;7.53;5.83
64861;PMS5003;62652;42.274;-71.436;2022-09-09T03:19:00;6.17;5.80;4.90
64861;PMS5003;62652;42.274;-71.436;2022-09-09T03:20:00;5.83;5.83;5.40
64861;PMS5003;62652;42.274;-71.436;2022-09-09T03:21:00;5.87;5.57;3.77
64861;PMS5003;62652;42.274;-71.436;2022-09-09T03:22:00;6.30;5.93;4.07
64861;PMS5003;62652;42.274;-71.436;2022-09-09T03:23:00;5.90;5.90;4.87
64861;PMS5003;62652;42.274;-71.436;2022-09-09T03:24:00;6.00;5.60;4.13
64861;PMS5003;62652;42.274;-71.436;2022-09-09T03:25:00;6.00;5.80;4.20
64861;PMS5003;62652;42.274;-71.436;2022-09-09T03:26:00;4.83;4.83;3.63
64861;PMS5003;62652;42.274;-71.436;2022-09-09T03:27:00;6.23;6.23;4.23
64861;PMS5003;62652;42.274;-71.436;2022-09-09T03:28:00;5.53;5.53;3.90
64861;PMS5003;62652;42.274;-71.436;2022-09-09T03:29:00;4.03;3.93;2.60
64861;PMS5003;62652;42.274;-71.436;2022-09-09T03:30:00;5.40;5.40;4.20
64861;PMS5003;62652;42.274;-71.436;2022-09-09T03:31:00;5.57;5.40;3.77
64861;PMS5003;62652;42.274;-71.436;2022-09-09T03:32:00;5.33;5.33;4.00
64861;PMS5003;62652;42.274;-71.436;2022-09-09T03:33:00;3.83;3.83;2.87
64861;PMS5003;62652;42.274;-71.436;2022-09-09T03:34:00;4.37;4.37;3.43
64861;PMS5003;62652;42.274;-71.436;2022-09-09T03:35:00;6.13;6.03;4.27
64861;PMS5003;62652;42.274;-71.436;2022-09-09T03:36:00;5.10;4.87;3.03
64861;PMS5003;62652;42.274;-71.436;2022-09-09T03:37:00;4.80;4.67;3.00
64861;PMS5003;62652;42.274;-71.436;2022-09-09T03:38:00;4.97;4.57;3.77
64861;PMS5003;62652;42.274;-71.436;2022-09-09T03:39:00;4.20;4.20;3.10
64861;PMS5003;62652;42.274;-71.436;2022-09-09T03:40:00;6.03;5.43;3.53
64861;PMS5003;62652;42.274;-71.436;2022-09-09T03:41:00;6.00;5.87;3.73
64861;PMS5003;62652;42.274;-71.436;2022-09-09T03:42:00;6.10;5.47;3.67
64861;PMS5003;62652;42.274;-71.436;2022-09-09T03:43:00;5.33;4.53;3.40
64861;PMS5003;62652;42.274;-71.436;2022-09-09T03:44:00;6.57;5.97;4.10
64861;PMS5003;62652;42.274;-71.436;2022-09-09T03:45:00;5.50;5.00;3.93
64861;PMS5003;62652;42.274;-71.436;2022-09-09T03:46:00;5.47;5.33;3.47
64861;PMS5003;62652;42.274;-71.436;2022-09-09T03:47:00;4.83;4.47;2.60
64861;PMS5003;62652;42.274;-71.436;2022-09-09T03:48:00;4.83;4.83;3.73
64861;PMS5003;62652;42.274;-71.436;2022-09-09T03:49:00;4.13;4.13;2.73
64861;PMS5003;62652;42.274;-71.436;2022-09-09T03:50:00;4.03;3.70;3.00
64861;PMS5003;62652;42.274;-71.436;2022-09-09T03:51:00;4.63;4.27;3.27
64861;PMS5003;62652;42.274;-71.436;2022-09-09T03:52:00;4.50;4.50;3.57
64861;PMS5003;62652;42.274;-71.436;2022-09-09T03:53:00;5.37;4.73;3.63
64861;PMS5003;62652;42.274;-71.436;2022-09-09T03:54:00;4.70;4.70;3.70
64861;PMS5003;62652;42.274;-71.436;2022-09-09T03:55:00;4.37;4.37;3.57
64861;PMS5003;62652;42.274;-71.436;2022-09-09T03:56:00;3.97;3.80;3.10
64861;PMS5003;62652;42.274;-71.436;2022-09-09T03:57:00;4.13;4.03;3.00
64861;PMS5003;62652;42.274;-71.436;2022-09-09T03:58:00;5.47;4.73;2.97
64861;PMS5003;62652;42.274;-71.436;2022-09-09T03:59:00;4.63;4.63;3.47
64861;PMS5003;62652;42.274;-71.436;2022-09-09T04:00:00;4.50;4.50;3.90
64861;PMS5003;62652;42.274;-71.436;2022-09-09T04:01:01;4.00;3.80;2.40
64861;PMS5003;62652;42.274;-71.436;2022-09-09T04:02:00;5.70;5.70;4.50
64861;PMS5003;62652;42.274;-71.436;2022-09-09T04:03:00;4.00;4.00;3.30
64861;PMS5003;62652;42.274;-71.436;2022-09-09T04:04:00;4.87;4.53;3.43
64861;PMS5003;62652;42.274;-71.436;2022-09-09T04:05:00;5.57;5.57;3.33
64861;PMS5003;62652;42.274;-71.436;2022-09-09T04:06:02;3.63;3.53;2.37
64861;PMS5003;62652;42.274;-71.436;2022-09-09T04:07:00;4.70;4.23;3.23
64861;PMS5003;62652;42.274;-71.436;2022-09-09T04:08:00;4.57;4.27;3.37
64861;PMS5003;62652;42.274;-71.436;2022-09-09T04:09:00;3.13;3.03;2.00
64861;PMS5003;62652;42.274;-71.436;2022-09-09T04:10:00;4.47;4.47;3.30
64861;PMS5003;62652;42.274;-71.436;2022-09-09T04:11:00;3.33;3.33;2.60
64861;PMS5003;62652;42.274;-71.436;2022-09-09T04:12:00;4.27;4.27;3.17
64861;PMS5003;62652;42.274;-71.436;2022-09-09T04:13:00;4.17;3.73;3.10
64861;PMS5003;62652;42.274;-71.436;2022-09-09T04:14:00;7.00;6.77;4.50
64861;PMS5003;62652;42.274;-71.436;2022-09-09T04:15:00;4.83;4.70;3.77
64861;PMS5003;62652;42.274;-71.436;2022-09-09T04:16:00;3.70;3.70;3.13
64861;PMS5003;62652;42.274;-71.436;2022-09-09T04:17:00;4.87;4.87;3.40
64861;PMS5003;62652;42.274;-71.436;2022-09-09T04:18:00;3.87;3.87;2.97
64861;PMS5003;62652;42.274;-71.436;2022-09-09T04:19:00;3.37;3.37;2.67
64861;PMS5003;62652;42.274;-71.436;2022-09-09T04:20:00;3.23;3.23;2.23
64861;PMS5003;62652;42.274;-71.436;2022-09-09T04:21:00;4.87;4.87;3.77
64861;PMS5003;62652;42.274;-71.436;2022-09-09T04:22:00;3.73;3.60;3.13
64861;PMS5003;62652;42.274;-71.436;2022-09-09T04:23:00;5.67;5.13;3.83
64861;PMS5003;62652;42.274;-71.436;2022-09-09T04:24:00;5.40;4.83;3.60
64861;PMS5003;62652;42.274;-71.436;2022-09-09T04:25:00;5.33;5.07;3.33
64861;PMS5003;62652;42.274;-71.436;2022-09-09T04:26:00;4.80;4.77;3.57
64861;PMS5003;62652;42.274;-71.436;2022-09-09T04:27:00;3.87;3.20;3.00
64861;PMS5003;62652;42.274;-71.436;2022-09-09T04:28:00;4.07;4.00;3.20
64861;PMS5003;62652;42.274;-71.436;2022-09-09T04:29:00;3.93;3.93;3.27
64861;PMS5003;62652;42.274;-71.436;2022-09-09T04:30:00;4.77;4.57;3.40
64861;PMS5003;62652;42.274;-71.436;2022-09-09T04:31:03;5.20;4.70;3.90
64861;PMS5003;62652;42.274;-71.436;2022-09-09T04:32:00;5.47;5.27;3.87
64861;PMS5003;62652;42.274;-71.436;2022-09-09T04:33:00;4.17;4.17;3.23
64861;PMS5003;62652;42.274;-71.436;2022-09-09T04:34:00;4.40;4.03;3.33
64861;PMS5003;62652;42.274;-71.436;2022-09-09T04:35:00;4.87;4.20;3.87
64861;PMS5003;62652;42.274;-71.436;2022-09-09T04:36:00;4.30;4.20;3.20
64861;PMS5003;62652;42.274;-71.436;2022-09-09T04:37:00;4.57;4.40;3.47
64861;PMS5003;62652;42.274;-71.436;2022-09-09T04:38:00;4.43;4.33;3.23
64861;PMS5003;62652;42.274;-71.436;2022-09-09T04:39:00;5.60;4.87;3.20
64861;PMS5003;62652;42.274;-71.436;2022-09-09T04:40:00;5.53;5.10;3.43
64861;PMS5003;62652;42.274;-71.436;2022-09-09T04:41:00;5.37;5.03;3.50
64861;PMS5003;62652;42.274;-71.436;2022-09-09T04:42:00;5.00;5.00;3.37
64861;PMS5003;62652;42.274;-71.436;2022-09-09T04:43:00;5.70;5.70;4.37
64861;PMS5003;62652;42.274;-71.436;2022-09-09T04:44:00;6.23;6.03;4.03
64861;PMS5003;62652;42.274;-71.436;2022-09-09T04:45:00;5.00;5.00;3.47
64861;PMS5003;62652;42.274;-71.436;2022-09-09T04:46:00;4.13;4.03;3.00
64861;PMS5003;62652;42.274;-71.436;2022-09-09T04:47:00;4.93;4.93;3.73
64861;PMS5003;62652;42.274;-71.436;2022-09-09T04:48:00;4.57;4.57;3.87
64861;PMS5003;62652;42.274;-71.436;2022-09-09T04:49:00;5.00;5.00;3.70
64861;PMS5003;62652;42.274;-71.436;2022-09-09T04:50:00;3.60;3.60;3.00
64861;PMS5003;62652;42.274;-71.436;2022-09-09T04:51:01;5.30;4.93;3.93
64861;PMS5003;62652;42.274;-71.436;2022-09-09T04:52:00;3.77;3.70;2.90
64861;PMS5003;62652;42.274;-71.436;2022-09-09T04:53:00;3.20;3.20;3.00
64861;PMS5003;62652;42.274;-71.436;2022-09-09T04:54:00;5.83;5.40;3.00
64861;PMS5003;62652;42.274;-71.436;2022-09-09T04:55:00;5.77;5.13;3.33
64861;PMS5003;62652;42.274;-71.436;2022-09-09T04:56:01;4.07;4.07;2.80
64861;PMS5003;62652;42.274;-71.436;2022-09-09T04:57:00;3.90;3.90;2.90
64861;PMS5003;62652;42.274;-71.436;2022-09-09T04:58:02;4.27;3.77;2.90
64861;PMS5003;62652;42.274;-71.436;2022-09-09T04:59:00;4.40;4.40;3.60
64861;PMS5003;62652;42.274;-71.436;2022-09-09T05:00:00;2.43;2.43;1.87
64861;PMS5003;62652;42.274;-71.436;2022-09-09T05:01:04;2.77;2.53;2.13
64861;PMS5003;62652;42.274;-71.436;2022-09-09T05:02:00;5.37;4.70;3.67
64861;PMS5003;62652;42.274;-71.436;2022-09-09T05:03:02;4.50;3.97;3.33
64861;PMS5003;62652;42.274;-71.436;2022-09-09T05:04:00;5.27;5.27;4.13
64861;PMS5003;62652;42.274;-71.436;2022-09-09T05:05:00;5.20;4.53;3.00
64861;PMS5003;62652;42.274;-71.436;2022-09-09T05:06:04;4.10;4.10;2.83
64861;PMS5003;62652;42.274;-71.436;2022-09-09T05:07:00;4.53;4.53;3.47
64861;PMS5003;62652;42.274;-71.436;2022-09-09T05:08:00;5.50;5.50;4.03
64861;PMS5003;62652;42.274;-71.436;2022-09-09T05:09:00;5.33;4.87;3.00
64861;PMS5003;62652;42.274;-71.436;2022-09-09T05:10:00;4.63;4.63;3.30
64861;PMS5003;62652;42.274;-71.436;2022-09-09T05:11:00;5.13;4.97;3.57
64861;PMS5003;62652;42.274;-71.436;2022-09-09T05:12:00;5.13;4.17;3.07
64861;PMS5003;62652;42.274;-71.436;2022-09-09T05:13:00;5.40;5.27;3.93
64861;PMS5003;62652;42.274;-71.436;2022-09-09T05:14:00;5.00;5.00;3.50
64861;PMS5003;62652;42.274;-71.436;2022-09-09T05:15:00;5.03;4.63;3.67
64861;PMS5003;62652;42.274;-71.436;2022-09-09T05:16:00;6.03;5.87;4.00
64861;PMS5003;62652;42.274;-71.436;2022-09-09T05:17:00;5.47;5.03;3.73
64861;PMS5003;62652;42.274;-71.436;2022-09-09T05:18:00;3.73;3.73;2.73
64861;PMS5003;62652;42.274;-71.436;2022-09-09T05:19:00;4.63;4.63;3.07
64861;PMS5003;62652;42.274;-71.436;2022-09-09T05:20:00;4.53;4.00;3.00
64861;PMS5003;62652;42.274;-71.436;2022-09-09T05:21:00;5.23;4.53;3.63
64861;PMS5003;62652;42.274;-71.436;2022-09-09T05:22:00;5.97;5.97;4.30
64861;PMS5003;62652;42.274;-71.436;2022-09-09T05:23:00;4.10;4.10;3.20
64861;PMS5003;62652;42.274;-71.436;2022-09-09T05:24:00;4.50;4.17;2.63
64861;PMS5003;62652;42.274;-71.436;2022-09-09T05:25:00;5.37;4.80;3.77
64861;PMS5003;62652;42.274;-71.436;2022-09-09T05:26:00;4.87;4.20;3.00
64861;PMS5003;62652;42.274;-71.436;2022-09-09T05:27:00;4.40;4.40;3.70
64861;PMS5003;62652;42.274;-71.436;2022-09-09T05:28:00;5.73;5.57;3.67
64861;PMS5003;62652;42.274;-71.436;2022-09-09T05:29:00;4.87;4.87;3.53
64861;PMS5003;62652;42.274;-71.436;2022-09-09T05:30:00;5.77;5.73;3.47
64861;PMS5003;62652;42.274;-71.436;2022-09-09T05:31:01;5.07;4.87;3.67
64861;PMS5003;62652;42.274;-71.436;2022-09-09T05:32:00;5.40;5.00;4.00
64861;PMS5003;62652;42.274;-71.436;2022-09-09T05:33:00;4.33;4.07;2.90
64861;PMS5003;62652;42.274;-71.436;2022-09-09T05:34:00;4.03;4.03;3.00
64861;PMS5003;62652;42.274;-71.436;2022-09-09T05:35:00;3.00;3.00;2.13
64861;PMS5003;62652;42.274;-71.436;2022-09-09T05:36:00;3.63;3.53;2.10
64861;PMS5003;62652;42.274;-71.436;2022-09-09T05:37:00;4.83;4.10;3.47
64861;PMS5003;62652;42.274;-71.436;2022-09-09T05:38:00;4.67;4.67;3.17
64861;PMS5003;62652;42.274;-71.436;2022-09-09T05:39:00;4.90;4.73;3.83
64861;PMS5003;62652;42.274;-71.436;2022-09-09T05:40:00;4.47;4.47;3.00
64861;PMS5003;62652;42.274;-71.436;2022-09-09T05:41:00;5.23;5.23;3.57
64861;PMS5003;62652;42.274;-71.436;2022-09-09T05:42:00;4.53;4.53;3.33